sensor_id;sensor_type;location;lat;lon;timestamp;pressure;altitude;pressure_sealevel;temperature;humidity
6349;BME280;3207;42.648;23.406;2022-08-23T00:01:30;99615.84;;;19.97;99.76
6349;BME280;3207;42.648;23.406;2022-08-23T00:03:59;99619.50;;;19.96;99.69
6349;BME280;3207;42.648;23.406;2022-08-23T00:06:27;99612.47;;;19.88;99.77
6349;BME280;3207;42.648;23.406;2022-08-23T00:08:54;99614.00;;;19.83;100.00
6349;BME280;3207;42.648;23.406;2022-08-23T00:11:28;99620.03;;;19.77;100.00
6349;BME280;3207;42.648;23.406;2022-08-23T00:13:55;99614.06;;;19.74;100.00
6349;BME280;3207;42.648;23.406;2022-08-23T00:16:22;99617.72;;;19.73;100.00
6349;BME280;3207;42.648;23.406;2022-08-23T00:18:49;99617.09;;;19.71;100.00
6349;BME280;3207;42.648;23.406;2022-08-23T00:21:16;99613.44;;;19.72;100.00
6349;BME280;3207;42.648;23.406;2022-08-23T00:23:43;99605.66;;;19.71;100.00
6349;BME280;3207;42.648;23.406;2022-08-23T00:26:09;99608.50;;;19.69;100.00
6349;BME280;3207;42.648;23.406;2022-08-23T00:28:37;99608.69;;;19.68;100.00
6349;BME280;3207;42.648;23.406;2022-08-23T00:31:04;99602.91;;;19.64;100.00
6349;BME280;3207;42.648;23.406;2022-08-23T00:33:31;99611.59;;;19.73;100.00
6349;BME280;3207;42.648;23.406;2022-08-23T00:35:58;99601.28;;;19.78;100.00
6349;BME280;3207;42.648;23.406;2022-08-23T00:38:24;99606.22;;;19.81;100.00
6349;BME280;3207;42.648;23.406;2022-08-23T00:40:52;99604.84;;;19.85;100.00
6349;BME280;3207;42.648;23.406;2022-08-23T00:43:23;99604.50;;;19.88;100.00
6349;BME280;3207;42.648;23.406;2022-08-23T00:46:22;99613.94;;;19.91;100.00
6349;BME280;3207;42.648;23.406;2022-08-23T00:49:12;99596.72;;;19.87;100.00
6349;BME280;3207;42.648;23.406;2022-08-23T00:51:45;99615.22;;;19.95;100.00
6349;BME280;3207;42.648;23.406;2022-08-23T00:54:13;99614.19;;;19.96;100.00
6349;BME280;3207;42.648;23.406;2022-08-23T00:56:40;99606.41;;;19.94;100.00
6349;BME280;3207;42.648;23.406;2022-08-23T00:59:08;99607.25;;;19.95;99.96
6349;BME280;3207;42.648;23.406;2022-08-23T01:01:36;99607.25;;;19.95;99.87
6349;BME280;3207;42.648;23.406;2022-08-23T01:04:03;99603.94;;;19.93;99.57
6349;BME280;3207;42.648;23.406;2022-08-23T01:06:32;99600.66;;;19.91;99.92
6349;BME280;3207;42.648;23.406;2022-08-23T01:09:02;99606.81;;;19.91;99.85
6349;BME280;3207;42.648;23.406;2022-08-23T01:11:36;99598.84;;;19.91;100.00
6349;BME280;3207;42.648;23.406;2022-08-23T01:14:07;99600.28;;;19.94;99.82
6349;BME280;3207;42.648;23.406;2022-08-23T01:16:40;99610.72;;;19.95;99.79
6349;BME280;3207;42.648;23.406;2022-08-23T01:19:13;99594.81;;;19.95;100.00
6349;BME280;3207;42.648;23.406;2022-08-23T01:21:45;99599.94;;;19.97;99.82
6349;BME280;3207;42.648;23.406;2022-08-23T01:24:14;99590.50;;;19.94;99.81
6349;BME280;3207;42.648;23.406;2022-08-23T01:26:42;99594.97;;;19.94;99.82
6349;BME280;3207;42.648;23.406;2022-08-23T01:29:09;99602.28;;;19.92;99.76
6349;BME280;3207;42.648;23.406;2022-08-23T01:31:35;99595.72;;;19.88;99.65
6349;BME280;3207;42.648;23.406;2022-08-23T01:34:04;99600.38;;;19.86;100.00
6349;BME280;3207;42.648;23.406;2022-08-23T01:36:31;99601.38;;;19.85;100.00
6349;BME280;3207;42.648;23.406;2022-08-23T01:38:58;99600.38;;;19.86;100.00
6349;BME280;3207;42.648;23.406;2022-08-23T01:41:26;99596.91;;;19.85;100.00
6349;BME280;3207;42.648;23.406;2022-08-23T01:43:53;99604.69;;;19.87;100.00
6349;BME280;3207;42.648;23.406;2022-08-23T01:46:22;99603.22;;;19.84;100.00
6349;BME280;3207;42.648;23.406;2022-08-23T01:48:51;99600.13;;;19.81;100.00
6349;BME280;3207;42.648;23.406;2022-08-23T01:51:19;99608.06;;;19.81;100.00
6349;BME280;3207;42.648;23.406;2022-08-23T01:53:46;99606.59;;;19.78;100.00
6349;BME280;3207;42.648;23.406;2022-08-23T01:56:14;99597.16;;;19.76;100.00
6349;BME280;3207;42.648;23.406;2022-08-23T01:58:46;99588.28;;;19.68;100.00
6349;BME280;3207;42.648;23.406;2022-08-23T02:01:13;99602.81;;;19.72;100.00
6349;BME280;3207;42.648;23.406;2022-08-23T02:03:39;99605.66;;;19.71;100.00
6349;BME280;3207;42.648;23.406;2022-08-23T02:06:06;99607.28;;;19.72;100.00
6349;BME280;3207;42.648;23.406;2022-08-23T02:08:33;99603.81;;;19.71;100.00
6349;BME280;3207;42.648;23.406;2022-08-23T02:11:19;99610.34;;;19.69;100.00
6349;BME280;3207;42.648;23.406;2022-08-23T02:13:49;99609.22;;;19.63;100.00
6349;BME280;3207;42.648;23.406;2022-08-23T02:16:21;99599.50;;;19.56;100.00
6349;BME280;3207;42.648;23.406;2022-08-23T02:18:48;99613.69;;;19.63;100.00
6349;BME280;3207;42.648;23.406;2022-08-23T02:21:15;99612.84;;;19.62;100.00
6349;BME280;3207;42.648;23.406;2022-08-23T02:23:42;99615.50;;;19.62;100.00
6349;BME280;3207;42.648;23.406;2022-08-23T02:26:08;99619.00;;;19.63;100.00
6349;BME280;3207;42.648;23.406;2022-08-23T02:28:35;99605.63;;;19.56;100.00
6349;BME280;3207;42.648;23.406;2022-08-23T02:31:03;99621.00;;;19.61;100.00
6349;BME280;3207;42.648;23.406;2022-08-23T02:33:30;99622.06;;;19.52;100.00
6349;BME280;3207;42.648;23.406;2022-08-23T02:35:56;99623.75;;;19.45;100.00
6349;BME280;3207;42.648;23.406;2022-08-23T02:38:23;99619.34;;;19.37;100.00
6349;BME280;3207;42.648;23.406;2022-08-23T02:40:49;99633.59;;;19.36;100.00
6349;BME280;3207;42.648;23.406;2022-08-23T02:43:17;99630.13;;;19.35;100.00
6349;BME280;3207;42.648;23.406;2022-08-23T02:45:43;99631.59;;;19.38;100.00
6349;BME280;3207;42.648;23.406;2022-08-23T02:48:11;99637.91;;;19.37;100.00
6349;BME280;3207;42.648;23.406;2022-08-23T02:50:38;99636.25;;;19.36;100.00
6349;BME280;3207;42.648;23.406;2022-08-23T02:53:05;99635.25;;;19.37;100.00
6349;BME280;3207;42.648;23.406;2022-08-23T02:55:31;99635.25;;;19.37;100.00
6349;BME280;3207;42.648;23.406;2022-08-23T02:57:58;99635.78;;;19.32;100.00
6349;BME280;3207;42.648;23.406;2022-08-23T03:00:25;99640.25;;;19.32;100.00
6349;BME280;3207;42.648;23.406;2022-08-23T03:02:52;99639.59;;;19.30;100.00
6349;BME280;3207;42.648;23.406;2022-08-23T03:05:20;99642.06;;;19.31;100.00
6349;BME280;3207;42.648;23.406;2022-08-23T03:07:47;99642.06;;;19.31;100.00
6349;BME280;3207;42.648;23.406;2022-08-23T03:10:13;99635.94;;;19.31;100.00
6349;BME280;3207;42.648;23.406;2022-08-23T03:12:41;99643.25;;;19.29;100.00
6349;BME280;3207;42.648;23.406;2022-08-23T03:15:08;99635.34;;;19.21;100.00
6349;BME280;3207;42.648;23.406;2022-08-23T03:17:36;99649.25;;;19.23;100.00
6349;BME280;3207;42.648;23.406;2022-08-23T03:20:03;99642.31;;;19.22;100.00
6349;BME280;3207;42.648;23.406;2022-08-23T03:22:31;99640.47;;;19.22;100.00
6349;BME280;3207;42.648;23.406;2022-08-23T03:24:58;99640.00;;;19.19;100.00
6349;BME280;3207;42.648;23.406;2022-08-23T03:27:25;99647.59;;;19.22;100.00
6349;BME280;3207;42.648;23.406;2022-08-23T03:29:52;99643.66;;;19.18;100.00
6349;BME280;3207;42.648;23.406;2022-08-23T03:32:18;99660.91;;;19.14;100.00
6349;BME280;3207;42.648;23.406;2022-08-23T03:34:45;99652.81;;;19.15;100.00
6349;BME280;3207;42.648;23.406;2022-08-23T03:37:12;99649.78;;;19.18;100.00
6349;BME280;3207;42.648;23.406;2022-08-23T03:39:40;99651.31;;;19.13;100.00
6349;BME280;3207;42.648;23.406;2022-08-23T03:42:06;99648.00;;;19.11;100.00
6349;BME280;3207;42.648;23.406;2022-08-23T03:44:33;99661.56;;;19.16;100.00
6349;BME280;3207;42.648;23.406;2022-08-23T03:47:00;99668.47;;;19.25;100.00
6349;BME280;3207;42.648;23.406;2022-08-23T03:49:27;99671.78;;;19.27;100.00
6349;BME280;3207;42.648;23.406;2022-08-23T03:51:54;99673.22;;;19.29;100.00
6349;BME280;3207;42.648;23.406;2022-08-23T03:54:20;99670.22;;;19.32;100.00
6349;BME280;3207;42.648;23.406;2022-08-23T03:56:54;99677.00;;;19.35;100.00
6349;BME280;3207;42.648;23.406;2022-08-23T03:59:24;99678.66;;;19.36;100.00
6349;BME280;3207;42.648;23.406;2022-08-23T04:01:50;99667.75;;;19.31;100.00
6349;BME280;3207;42.648;23.406;2022-08-23T04:04:17;99679.94;;;19.40;100.00
6349;BME280;3207;42.648;23.406;2022-08-23T04:06:44;99683.91;;;19.44;100.00
6349;BME280;3207;42.648;23.406;2022-08-23T04:09:11;99679.94;;;19.48;100.00
6349;BME280;3207;42.648;23.406;2022-08-23T04:11:38;99684.03;;;19.51;100.00
6349;BME280;3207;42.648;23.406;2022-08-23T04:14:06;99695.13;;;19.54;100.00
6349;BME280;3207;42.648;23.406;2022-08-23T04:16:33;99688.66;;;19.57;100.00
6349;BME280;3207;42.648;23.406;2022-08-23T04:19:02;99692.78;;;19.59;100.00
6349;BME280;3207;42.648;23.406;2022-08-23T04:21:28;99702.56;;;19.59;100.00
6349;BME280;3207;42.648;23.406;2022-08-23T04:23:55;99699.72;;;19.60;100.00
6349;BME280;3207;42.648;23.406;2022-08-23T04:26:22;99701.38;;;19.61;100.00
6349;BME280;3207;42.648;23.406;2022-08-23T04:28:49;99700.53;;;19.61;100.00
6349;BME280;3207;42.648;23.406;2022-08-23T04:31:18;99706.41;;;19.56;100.00
6349;BME280;3207;42.648;23.406;2022-08-23T04:33:45;99705.09;;;19.52;100.00
6349;BME280;3207;42.648;23.406;2022-08-23T04:36:12;99712.59;;;19.49;100.00
6349;BME280;3207;42.648;23.406;2022-08-23T04:38:39;99715.38;;;19.47;100.00
6349;BME280;3207;42.648;23.406;2022-08-23T04:41:05;99713.91;;;19.45;100.00
6349;BME280;3207;42.648;23.406;2022-08-23T04:43:49;99712.59;;;19.49;100.00
6349;BME280;3207;42.648;23.406;2022-08-23T04:46:17;99720.69;;;19.47;100.00
6349;BME280;3207;42.648;23.406;2022-08-23T04:48:46;99725.03;;;19.48;100.00
6349;BME280;3207;42.648;23.406;2022-08-23T04:51:14;99715.06;;;19.42;100.00
6349;BME280;3207;42.648;23.406;2022-08-23T04:53:41;99724.34;;;19.46;100.00
6349;BME280;3207;42.648;23.406;2022-08-23T04:56:08;99727.78;;;19.55;100.00
6349;BME280;3207;42.648;23.406;2022-08-23T04:58:36;99733.56;;;19.58;100.00
6349;BME280;3207;42.648;23.406;2022-08-23T05:01:05;99729.53;;;19.62;100.00
6349;BME280;3207;42.648;23.406;2022-08-23T05:03:34;99735.50;;;19.64;100.00
6349;BME280;3207;42.648;23.406;2022-08-23T05:06:02;99736.34;;;19.65;100.00
6349;BME280;3207;42.648;23.406;2022-08-23T05:08:29;99740.47;;;19.67;100.00
6349;BME280;3207;42.648;23.406;2022-08-23T05:10:58;99744.78;;;19.68;100.00
6349;BME280;3207;42.648;23.406;2022-08-23T05:13:25;99741.28;;;19.68;100.00
6349;BME280;3207;42.648;23.406;2022-08-23T05:15:51;99742.78;;;19.70;100.00
6349;BME280;3207;42.648;23.406;2022-08-23T05:18:18;99753.38;;;19.70;100.00
6349;BME280;3207;42.648;23.406;2022-08-23T05:20:46;99748.06;;;19.70;100.00
6349;BME280;3207;42.648;23.406;2022-08-23T05:23:13;99748.06;;;19.70;100.00
6349;BME280;3207;42.648;23.406;2022-08-23T05:25:40;99747.69;;;19.73;100.00
6349;BME280;3207;42.648;23.406;2022-08-23T05:30:44;99754.91;;;19.88;100.00
6349;BME280;3207;42.648;23.406;2022-08-23T05:33:11;99744.88;;;19.98;100.00
6349;BME280;3207;42.648;23.406;2022-08-23T05:35:38;99754.06;;;20.10;100.00
6349;BME280;3207;42.648;23.406;2022-08-23T05:38:06;99757.56;;;20.25;100.00
6349;BME280;3207;42.648;23.406;2022-08-23T05:40:33;99768.78;;;20.35;100.00
6349;BME280;3207;42.648;23.406;2022-08-23T05:42:59;99758.16;;;20.35;99.48
6349;BME280;3207;42.648;23.406;2022-08-23T05:45:26;99765.59;;;20.40;99.40
6349;BME280;3207;42.648;23.406;2022-08-23T05:47:53;99763.34;;;20.52;99.42
6349;BME280;3207;42.648;23.406;2022-08-23T05:50:19;99769.38;;;20.60;98.74
6349;BME280;3207;42.648;23.406;2022-08-23T05:52:47;99764.16;;;20.67;97.21
6349;BME280;3207;42.648;23.406;2022-08-23T05:55:15;99765.09;;;20.74;96.45
6349;BME280;3207;42.648;23.406;2022-08-23T05:57:42;99764.72;;;20.77;95.92
6349;BME280;3207;42.648;23.406;2022-08-23T06:00:10;99771.66;;;20.78;95.85
6349;BME280;3207;42.648;23.406;2022-08-23T06:02:38;99764.72;;;20.77;95.74
6349;BME280;3207;42.648;23.406;2022-08-23T06:05:06;99769.47;;;20.81;95.68
6349;BME280;3207;42.648;23.406;2022-08-23T06:07:32;99769.31;;;20.83;95.70
6349;BME280;3207;42.648;23.406;2022-08-23T06:09:59;99762.34;;;20.82;95.10
6349;BME280;3207;42.648;23.406;2022-08-23T06:12:27;99773.97;;;20.81;95.31
6349;BME280;3207;42.648;23.406;2022-08-23T06:14:55;99777.28;;;20.83;95.75
6349;BME280;3207;42.648;23.406;2022-08-23T06:17:22;99762.34;;;20.82;95.05
6349;BME280;3207;42.648;23.406;2022-08-23T06:19:49;99779.00;;;20.91;94.65
6349;BME280;3207;42.648;23.406;2022-08-23T06:22:15;99780.47;;;20.93;94.26
6349;BME280;3207;42.648;23.406;2022-08-23T06:24:43;99769.56;;;20.88;93.98
6349;BME280;3207;42.648;23.406;2022-08-23T06:27:09;99766.53;;;20.91;93.77
6349;BME280;3207;42.648;23.406;2022-08-23T06:29:38;99776.06;;;21.00;93.84
6349;BME280;3207;42.648;23.406;2022-08-23T06:32:04;99774.88;;;21.03;93.40
6349;BME280;3207;42.648;23.406;2022-08-23T06:34:34;99775.53;;;21.05;92.53
6349;BME280;3207;42.648;23.406;2022-08-23T06:37:05;99770.28;;;21.11;92.18
6349;BME280;3207;42.648;23.406;2022-08-23T06:39:32;99770.41;;;21.18;91.97
6349;BME280;3207;42.648;23.406;2022-08-23T06:42:01;99774.16;;;21.24;91.40
6349;BME280;3207;42.648;23.406;2022-08-23T06:44:29;99771.38;;;21.32;90.95
6349;BME280;3207;42.648;23.406;2022-08-23T06:46:58;99778.06;;;21.42;90.85
6349;BME280;3207;42.648;23.406;2022-08-23T06:49:25;99767.34;;;21.50;90.22
6349;BME280;3207;42.648;23.406;2022-08-23T06:51:54;99777.09;;;21.65;88.89
6349;BME280;3207;42.648;23.406;2022-08-23T06:54:23;99770.19;;;21.70;88.34
6349;BME280;3207;42.648;23.406;2022-08-23T06:56:51;99778.06;;;21.78;87.79
6349;BME280;3207;42.648;23.406;2022-08-23T06:59:18;99787.56;;;21.87;87.44
6349;BME280;3207;42.648;23.406;2022-08-23T07:01:47;99794.59;;;21.95;87.03
6349;BME280;3207;42.648;23.406;2022-08-23T07:04:18;99796.06;;;21.98;86.37
6349;BME280;3207;42.648;23.406;2022-08-23T07:06:46;99802.56;;;21.95;85.86
6349;BME280;3207;42.648;23.406;2022-08-23T07:09:13;99799.84;;;21.88;85.73
6349;BME280;3207;42.648;23.406;2022-08-23T07:11:40;99800.69;;;21.89;85.70
6349;BME280;3207;42.648;23.406;2022-08-23T07:14:09;99802.75;;;21.93;86.12
6349;BME280;3207;42.648;23.406;2022-08-23T07:16:38;99803.06;;;21.99;86.06
6349;BME280;3207;42.648;23.406;2022-08-23T07:19:04;99810.28;;;22.05;85.62
6349;BME280;3207;42.648;23.406;2022-08-23T07:21:33;99816.38;;;21.99;84.70
6349;BME280;3207;42.648;23.406;2022-08-23T07:23:59;99804.81;;;21.91;84.69
6349;BME280;3207;42.648;23.406;2022-08-23T07:26:27;99815.63;;;21.90;84.99
6349;BME280;3207;42.648;23.406;2022-08-23T07:28:53;99809.88;;;21.86;85.40
6349;BME280;3207;42.648;23.406;2022-08-23T07:31:23;99820.88;;;21.83;85.27
6349;BME280;3207;42.648;23.406;2022-08-23T07:33:52;99823.84;;;21.74;85.03
6349;BME280;3207;42.648;23.406;2022-08-23T07:36:21;99827.22;;;21.61;84.21
6349;BME280;3207;42.648;23.406;2022-08-23T07:38:49;99830.59;;;21.55;84.82
6349;BME280;3207;42.648;23.406;2022-08-23T07:41:16;99824.63;;;21.53;85.57
6349;BME280;3207;42.648;23.406;2022-08-23T07:43:43;99828.59;;;21.57;85.98
6349;BME280;3207;42.648;23.406;2022-08-23T07:46:10;99819.31;;;21.53;85.74
6349;BME280;3207;42.648;23.406;2022-08-23T07:48:38;99838.03;;;21.60;86.80
6349;BME280;3207;42.648;23.406;2022-08-23T07:51:08;99831.31;;;21.64;86.59
6349;BME280;3207;42.648;23.406;2022-08-23T07:53:35;99837.72;;;21.69;86.32
6349;BME280;3207;42.648;23.406;2022-08-23T07:56:05;99837.72;;;21.69;86.63
6349;BME280;3207;42.648;23.406;2022-08-23T07:58:31;99833.41;;;21.68;86.88
6349;BME280;3207;42.648;23.406;2022-08-23T08:01:08;99854.59;;;21.76;86.65
6349;BME280;3207;42.648;23.406;2022-08-23T08:03:36;99852.94;;;21.75;86.48
6349;BME280;3207;42.648;23.406;2022-08-23T08:06:06;99849.72;;;21.80;86.79
6349;BME280;3207;42.648;23.406;2022-08-23T08:08:33;99852.44;;;21.86;86.42
6349;BME280;3207;42.648;23.406;2022-08-23T08:11:00;99832.16;;;21.85;85.80
6349;BME280;3207;42.648;23.406;2022-08-23T08:13:28;99850.78;;;22.00;84.44
6349;BME280;3207;42.648;23.406;2022-08-23T08:15:55;99851.13;;;22.12;83.94
6349;BME280;3207;42.648;23.406;2022-08-23T08:18:22;99858.19;;;22.26;83.53
6349;BME280;3207;42.648;23.406;2022-08-23T08:20:49;99858.09;;;22.34;83.36
6349;BME280;3207;42.648;23.406;2022-08-23T08:23:16;99856.53;;;22.46;82.74
6349;BME280;3207;42.648;23.406;2022-08-23T08:25:43;99859.47;;;22.51;82.23
6349;BME280;3207;42.648;23.406;2022-08-23T08:28:09;99859.59;;;22.64;81.96
6349;BME280;3207;42.648;23.406;2022-08-23T08:30:38;99863.75;;;22.74;81.89
6349;BME280;3207;42.648;23.406;2022-08-23T08:33:04;99871.25;;;22.85;81.84
6349;BME280;3207;42.648;23.406;2022-08-23T08:35:31;99879.91;;;22.93;81.81
6349;BME280;3207;42.648;23.406;2022-08-23T08:37:58;99876.91;;;23.03;81.50
6349;BME280;3207;42.648;23.406;2022-08-23T08:40:27;99877.81;;;23.17;81.12
6349;BME280;3207;42.648;23.406;2022-08-23T08:43:23;99876.84;;;23.31;80.67
6349;BME280;3207;42.648;23.406;2022-08-23T08:46:02;99888.63;;;23.43;80.09
6349;BME280;3207;42.648;23.406;2022-08-23T08:48:37;99896.72;;;23.50;79.28
6349;BME280;3207;42.648;23.406;2022-08-23T08:51:17;99895.69;;;23.51;79.25
6349;BME280;3207;42.648;23.406;2022-08-23T08:53:46;99903.88;;;23.49;79.08
6349;BME280;3207;42.648;23.406;2022-08-23T08:56:18;99904.44;;;23.45;78.55
6349;BME280;3207;42.648;23.406;2022-08-23T08:58:49;99904.81;;;23.42;78.68
6349;BME280;3207;42.648;23.406;2022-08-23T09:01:18;99908.94;;;23.38;78.43
6349;BME280;3207;42.648;23.406;2022-08-23T09:03:46;99906.84;;;23.33;78.83
6349;BME280;3207;42.648;23.406;2022-08-23T09:06:15;99915.09;;;23.38;78.75
6349;BME280;3207;42.648;23.406;2022-08-23T09:08:56;99914.91;;;23.40;78.72
6349;BME280;3207;42.648;23.406;2022-08-23T09:11:36;99858.88;;;23.05;78.76
6349;BME280;3207;42.648;23.406;2022-08-23T09:17:11;99907.75;;;23.47;78.62
6349;BME280;3207;42.648;23.406;2022-08-23T09:19:41;99918.94;;;23.63;78.67
6349;BME280;3207;42.648;23.406;2022-08-23T09:22:11;99915.75;;;23.81;77.31
6349;BME280;3207;42.648;23.406;2022-08-23T09:24:39;99917.03;;;24.05;76.42
6349;BME280;3207;42.648;23.406;2022-08-23T09:27:07;99914.69;;;24.30;75.05
6349;BME280;3207;42.648;23.406;2022-08-23T09:29:36;99915.53;;;24.50;74.33
6349;BME280;3207;42.648;23.406;2022-08-23T09:32:06;99907.31;;;24.65;73.28
6349;BME280;3207;42.648;23.406;2022-08-23T09:34:50;99922.16;;;24.94;72.72
6349;BME280;3207;42.648;23.406;2022-08-23T09:37:19;99911.84;;;25.17;70.87
6349;BME280;3207;42.648;23.406;2022-08-23T09:39:49;99916.13;;;25.38;69.24
6349;BME280;3207;42.648;23.406;2022-08-23T09:42:29;99905.56;;;25.56;68.70
6349;BME280;3207;42.648;23.406;2022-08-23T09:44:56;99918.03;;;25.95;67.92
6349;BME280;3207;42.648;23.406;2022-08-23T09:47:32;99922.41;;;26.21;66.42
6349;BME280;3207;42.648;23.406;2022-08-23T09:50:07;99915.88;;;26.48;66.01
6349;BME280;3207;42.648;23.406;2022-08-23T09:52:37;99917.69;;;26.54;65.08
6349;BME280;3207;42.648;23.406;2022-08-23T09:55:06;99933.13;;;26.59;64.86
6349;BME280;3207;42.648;23.406;2022-08-23T09:57:34;99926.97;;;26.52;64.78
6349;BME280;3207;42.648;23.406;2022-08-23T10:00:20;99927.47;;;26.42;64.72
6349;BME280;3207;42.648;23.406;2022-08-23T10:02:49;99926.72;;;26.29;65.10
6349;BME280;3207;42.648;23.406;2022-08-23T10:05:29;99925.97;;;26.15;65.23
6349;BME280;3207;42.648;23.406;2022-08-23T10:07:58;99931.38;;;26.02;66.03
6349;BME280;3207;42.648;23.406;2022-08-23T10:10:31;99934.72;;;25.91;66.43
6349;BME280;3207;42.648;23.406;2022-08-23T10:13:01;99934.41;;;25.74;65.92
6349;BME280;3207;42.648;23.406;2022-08-23T10:15:40;99940.56;;;25.54;66.22
6349;BME280;3207;42.648;23.406;2022-08-23T10:18:19;99932.81;;;25.40;68.09
6349;BME280;3207;42.648;23.406;2022-08-23T10:20:54;99921.72;;;25.16;68.38
6349;BME280;3207;42.648;23.406;2022-08-23T10:23:37;99917.00;;;25.12;68.49
6349;BME280;3207;42.648;23.406;2022-08-23T10:26:10;99926.88;;;25.05;68.45
6349;BME280;3207;42.648;23.406;2022-08-23T10:28:50;99929.94;;;24.82;68.84
6349;BME280;3207;42.648;23.406;2022-08-23T10:31:44;99923.34;;;24.52;68.90
6349;BME280;3207;42.648;23.406;2022-08-23T10:34:32;99856.00;;;23.95;70.28
6349;BME280;3207;42.648;23.406;2022-08-23T10:37:13;99943.69;;;24.33;70.65
6349;BME280;3207;42.648;23.406;2022-08-23T10:39:48;99931.47;;;24.17;71.10
6349;BME280;3207;42.648;23.406;2022-08-23T10:42:31;99926.94;;;24.11;71.08
6349;BME280;3207;42.648;23.406;2022-08-23T10:45:08;99948.31;;;24.18;71.12
6349;BME280;3207;42.648;23.406;2022-08-23T10:47:49;99937.63;;;24.11;71.15
6349;BME280;3207;42.648;23.406;2022-08-23T10:50:19;99941.50;;;24.08;71.81
6349;BME280;3207;42.648;23.406;2022-08-23T10:52:56;99938.44;;;24.12;71.64
6349;BME280;3207;42.648;23.406;2022-08-23T10:55:32;99939.28;;;24.19;71.71
6349;BME280;3207;42.648;23.406;2022-08-23T10:58:14;99933.56;;;24.22;71.73
6349;BME280;3207;42.648;23.406;2022-08-23T11:00:41;99936.69;;;24.25;71.31
6349;BME280;3207;42.648;23.406;2022-08-23T11:03:16;99933.56;;;24.28;71.29
6349;BME280;3207;42.648;23.406;2022-08-23T11:08:57;99929.69;;;24.31;70.98
6349;BME280;3207;42.648;23.406;2022-08-23T11:11:38;99881.91;;;24.01;70.59
6349;BME280;3207;42.648;23.406;2022-08-23T11:14:06;99942.22;;;24.37;70.40
6349;BME280;3207;42.648;23.406;2022-08-23T11:16:35;99941.44;;;24.36;70.31
6349;BME280;3207;42.648;23.406;2022-08-23T11:19:10;99934.41;;;24.29;70.19
6349;BME280;3207;42.648;23.406;2022-08-23T11:21:46;99925.16;;;24.25;70.40
6349;BME280;3207;42.648;23.406;2022-08-23T11:24:32;99922.03;;;24.15;70.45
6349;BME280;3207;42.648;23.406;2022-08-23T11:27:24;99932.72;;;24.21;70.30
6349;BME280;3207;42.648;23.406;2022-08-23T11:29:51;99937.63;;;24.18;70.89
6349;BME280;3207;42.648;23.406;2022-08-23T11:32:36;99931.66;;;24.16;70.87
6349;BME280;3207;42.648;23.406;2022-08-23T11:35:36;99933.56;;;24.22;71.27
6349;BME280;3207;42.648;23.406;2022-08-23T11:38:05;99933.19;;;24.25;70.59
6349;BME280;3207;42.648;23.406;2022-08-23T11:40:39;99933.72;;;24.14;69.89
6349;BME280;3207;42.648;23.406;2022-08-23T11:43:09;99929.00;;;24.16;70.11
6349;BME280;3207;42.648;23.406;2022-08-23T11:45:42;99934.75;;;24.13;69.92
6349;BME280;3207;42.648;23.406;2022-08-23T11:48:13;99933.31;;;24.10;70.25
6349;BME280;3207;42.648;23.406;2022-08-23T11:54:03;99933.09;;;24.12;70.24
6349;BME280;3207;42.648;23.406;2022-08-23T11:56:55;99932.28;;;24.11;70.24
6349;BME280;3207;42.648;23.406;2022-08-23T11:59:37;99938.06;;;24.15;70.46
6349;BME280;3207;42.648;23.406;2022-08-23T12:02:46;99937.91;;;24.23;70.59
6349;BME280;3207;42.648;23.406;2022-08-23T12:05:27;99934.00;;;24.25;70.36
6349;BME280;3207;42.648;23.406;2022-08-23T12:08:32;99938.09;;;24.28;70.19
6349;BME280;3207;42.648;23.406;2022-08-23T12:11:12;99929.63;;;24.18;68.99
6349;BME280;3207;42.648;23.406;2022-08-23T12:14:01;99934.69;;;23.99;69.51
6349;BME280;3207;42.648;23.406;2022-08-23T12:16:47;99944.13;;;23.89;70.48
6349;BME280;3207;42.648;23.406;2022-08-23T12:19:23;99945.31;;;23.86;70.14
6349;BME280;3207;42.648;23.406;2022-08-23T12:21:53;99942.44;;;23.81;69.61
6349;BME280;3207;42.648;23.406;2022-08-23T12:24:25;99940.72;;;23.67;69.96
6349;BME280;3207;42.648;23.406;2022-08-23T12:27:02;99943.75;;;23.57;70.57
6349;BME280;3207;42.648;23.406;2022-08-23T12:29:45;99944.47;;;23.45;71.24
6349;BME280;3207;42.648;23.406;2022-08-23T12:32:20;99941.91;;;23.58;71.23
6349;BME280;3207;42.648;23.406;2022-08-23T12:35:02;99939.06;;;23.66;71.24
6349;BME280;3207;42.648;23.406;2022-08-23T12:37:36;99935.03;;;23.77;71.34
6349;BME280;3207;42.648;23.406;2022-08-23T12:40:07;99928.91;;;23.89;70.90
6349;BME280;3207;42.648;23.406;2022-08-23T12:42:38;99927.72;;;23.98;71.14
6349;BME280;3207;42.648;23.406;2022-08-23T12:45:11;99929.63;;;24.18;70.17
6349;BME280;3207;42.648;23.406;2022-08-23T12:47:38;99919.19;;;24.23;69.62
6349;BME280;3207;42.648;23.406;2022-08-23T12:50:18;99922.09;;;24.41;69.79
6349;BME280;3207;42.648;23.406;2022-08-23T12:52:55;99914.31;;;24.59;69.03
6349;BME280;3207;42.648;23.406;2022-08-23T12:55:22;99917.59;;;24.74;68.20
6349;BME280;3207;42.648;23.406;2022-08-23T12:57:52;99914.97;;;24.94;67.54
6349;BME280;3207;42.648;23.406;2022-08-23T13:00:23;99918.84;;;25.18;66.96
6349;BME280;3207;42.648;23.406;2022-08-23T13:02:54;99918.41;;;25.41;66.54
6349;BME280;3207;42.648;23.406;2022-08-23T13:05:31;99912.78;;;25.69;65.79
6349;BME280;3207;42.648;23.406;2022-08-23T13:08:00;99917.84;;;25.90;64.90
6349;BME280;3207;42.648;23.406;2022-08-23T13:10:28;99908.94;;;25.96;64.08
6349;BME280;3207;42.648;23.406;2022-08-23T13:12:56;99917.25;;;25.81;63.75
6349;BME280;3207;42.648;23.406;2022-08-23T13:15:44;99908.88;;;25.58;64.12
6349;BME280;3207;42.648;23.406;2022-08-23T13:18:22;99898.19;;;25.51;64.03
6349;BME280;3207;42.648;23.406;2022-08-23T13:21:26;99914.00;;;25.60;64.08
6349;BME280;3207;42.648;23.406;2022-08-23T13:23:55;99908.47;;;25.61;64.36
6349;BME280;3207;42.648;23.406;2022-08-23T13:26:37;99905.59;;;25.63;64.77
6349;BME280;3207;42.648;23.406;2022-08-23T13:29:11;99906.81;;;25.53;64.35
6349;BME280;3207;42.648;23.406;2022-08-23T13:31:56;99919.19;;;25.48;64.58
6349;BME280;3207;42.648;23.406;2022-08-23T13:34:36;99908.53;;;25.28;65.14
6349;BME280;3207;42.648;23.406;2022-08-23T13:37:14;99909.34;;;25.22;65.89
6349;BME280;3207;42.648;23.406;2022-08-23T13:39:45;99912.88;;;25.16;66.53